sensor_id;sensor_type;location;lat;lon;timestamp;pressure;altitude;pressure_sealevel;temperature;humidity
75717;BME280;64333;50.138;14.332;2023-06-19T00:01:43;97962.63;;;19.49;55.86
75717;BME280;64333;50.138;14.332;2023-06-19T00:04:09;97957.22;;;19.41;56.07
75717;BME280;64333;50.138;14.332;2023-06-19T00:06:35;97954.88;;;19.38;56.00
75717;BME280;64333;50.138;14.332;2023-06-19T00:09:00;97953.47;;;19.34;56.46
75717;BME280;64333;50.138;14.332;2023-06-19T00:11:25;97948.16;;;19.24;57.33
75717;BME280;64333;50.138;14.332;2023-06-19T00:13:52;97951.75;;;19.23;56.80
75717;BME280;64333;50.138;14.332;2023-06-19T00:16:17;97951.41;;;19.17;56.30
75717;BME280;64333;50.138;14.332;2023-06-19T00:18:44;97952.03;;;19.20;56.92
75717;BME280;64333;50.138;14.332;2023-06-19T00:21:10;97942.34;;;19.21;56.76
75717;BME280;64333;50.138;14.332;2023-06-19T00:23:35;97941.19;;;19.14;56.33
75717;BME280;64333;50.138;14.332;2023-06-19T00:26:01;97952.09;;;19.19;56.28
75717;BME280;64333;50.138;14.332;2023-06-19T00:28:27;97948.91;;;19.15;56.81
75717;BME280;64333;50.138;14.332;2023-06-19T00:30:53;97941.19;;;19.14;56.37
75717;BME280;64333;50.138;14.332;2023-06-19T00:33:18;97954.66;;;19.09;57.06
75717;BME280;64333;50.138;14.332;2023-06-19T00:35:44;97942.34;;;19.00;57.59
75717;BME280;64333;50.138;14.332;2023-06-19T00:38:09;97944.94;;;18.80;57.51
75717;BME280;64333;50.138;14.332;2023-06-19T00:40:35;97943.72;;;18.84;57.32
75717;BME280;64333;50.138;14.332;2023-06-19T00:43:00;97936.56;;;18.86;57.13
75717;BME280;64333;50.138;14.332;2023-06-19T00:45:27;97942.59;;;18.77;57.27
75717;BME280;64333;50.138;14.332;2023-06-19T00:47:53;97936.38;;;18.78;57.84
75717;BME280;64333;50.138;14.332;2023-06-19T00:50:20;97938.72;;;18.81;56.96
75717;BME280;64333;50.138;14.332;2023-06-19T00:52:46;97932.69;;;18.80;57.03
75717;BME280;64333;50.138;14.332;2023-06-19T00:55:12;97921.88;;;18.74;57.48
75717;BME280;64333;50.138;14.332;2023-06-19T00:57:39;97927.81;;;18.76;57.08
75717;BME280;64333;50.138;14.332;2023-06-19T01:00:05;97921.66;;;18.77;57.27
75717;BME280;64333;50.138;14.332;2023-06-19T01:02:32;97924.25;;;18.77;56.93
75717;BME280;64333;50.138;14.332;2023-06-19T01:04:58;97914.22;;;18.82;56.61
75717;BME280;64333;50.138;14.332;2023-06-19T01:10:09;97909.31;;;18.88;55.54
75717;BME280;64333;50.138;14.332;2023-06-19T01:12:46;97911.28;;;18.96;55.42
75717;BME280;64333;50.138;14.332;2023-06-19T01:15:16;97916.53;;;18.96;55.11
75717;BME280;64333;50.138;14.332;2023-06-19T01:17:42;97908.88;;;19.04;54.88
75717;BME280;64333;50.138;14.332;2023-06-19T01:20:09;97911.22;;;19.07;54.99
75717;BME280;64333;50.138;14.332;2023-06-19T01:22:36;97915.91;;;19.03;55.03
75717;BME280;64333;50.138;14.332;2023-06-19T01:25:02;97914.88;;;18.95;55.22
75717;BME280;64333;50.138;14.332;2023-06-19T01:27:31;97914.16;;;18.93;55.71
75717;BME280;64333;50.138;14.332;2023-06-19T01:29:59;97906.13;;;18.85;56.00
75717;BME280;64333;50.138;14.332;2023-06-19T01:32:50;97914.03;;;18.74;56.61
75717;BME280;64333;50.138;14.332;2023-06-19T01:35:19;97914.66;;;18.66;57.28
75717;BME280;64333;50.138;14.332;2023-06-19T01:37:49;97903.88;;;18.60;57.44
75717;BME280;64333;50.138;14.332;2023-06-19T01:40:15;97908.91;;;18.52;58.06
75717;BME280;64333;50.138;14.332;2023-06-19T01:42:42;97900.19;;;18.31;58.11
75717;BME280;64333;50.138;14.332;2023-06-19T01:45:08;97901.47;;;18.25;58.55
75717;BME280;64333;50.138;14.332;2023-06-19T01:47:34;97903.25;;;18.25;58.42
75717;BME280;64333;50.138;14.332;2023-06-19T01:50:00;97903.63;;;18.20;58.38
75717;BME280;64333;50.138;14.332;2023-06-19T01:52:25;97916.81;;;18.19;58.59
75717;BME280;64333;50.138;14.332;2023-06-19T01:54:51;97911.97;;;18.03;59.49
75717;BME280;64333;50.138;14.332;2023-06-19T01:57:16;97899.66;;;17.94;59.86
75717;BME280;64333;50.138;14.332;2023-06-19T01:59:42;97906.75;;;17.92;60.62
75717;BME280;64333;50.138;14.332;2023-06-19T02:02:07;97905.94;;;17.92;59.61
75717;BME280;64333;50.138;14.332;2023-06-19T02:04:33;97904.03;;;18.05;59.12
75717;BME280;64333;50.138;14.332;2023-06-19T02:06:58;97902.38;;;18.04;59.56
75717;BME280;64333;50.138;14.332;2023-06-19T02:09:24;97908.28;;;18.06;59.52
75717;BME280;64333;50.138;14.332;2023-06-19T02:11:49;97907.81;;;18.01;59.68
75717;BME280;64333;50.138;14.332;2023-06-19T02:14:14;97905.22;;;18.01;59.65
75717;BME280;64333;50.138;14.332;2023-06-19T02:16:40;97907.81;;;18.01;59.08
75717;BME280;64333;50.138;14.332;2023-06-19T02:19:10;97907.34;;;18.07;59.69
75717;BME280;64333;50.138;14.332;2023-06-19T02:21:35;97909.38;;;18.03;58.84
75717;BME280;64333;50.138;14.332;2023-06-19T02:24:00;97907.34;;;18.07;59.59
75717;BME280;64333;50.138;14.332;2023-06-19T02:26:26;97917.41;;;18.11;59.27
75717;BME280;64333;50.138;14.332;2023-06-19T02:28:54;97905.56;;;18.07;59.52
75717;BME280;64333;50.138;14.332;2023-06-19T02:31:20;97914.59;;;18.03;60.68
75717;BME280;64333;50.138;14.332;2023-06-19T02:33:45;97921.16;;;17.98;62.87
75717;BME280;64333;50.138;14.332;2023-06-19T02:36:11;97916.78;;;17.76;65.42
75717;BME280;64333;50.138;14.332;2023-06-19T02:38:36;97915.34;;;17.72;65.48
75717;BME280;64333;50.138;14.332;2023-06-19T02:41:01;97919.50;;;17.53;67.23
75717;BME280;64333;50.138;14.332;2023-06-19T02:43:27;97914.63;;;17.37;67.95
75717;BME280;64333;50.138;14.332;2023-06-19T02:45:52;97915.19;;;17.19;69.16
75717;BME280;64333;50.138;14.332;2023-06-19T02:48:18;97913.50;;;17.07;70.10
75717;BME280;64333;50.138;14.332;2023-06-19T02:50:44;97904.69;;;16.97;70.42
75717;BME280;64333;50.138;14.332;2023-06-19T02:53:10;97898.97;;;16.81;70.43
75717;BME280;64333;50.138;14.332;2023-06-19T02:55:36;97899.47;;;16.86;72.07
75717;BME280;64333;50.138;14.332;2023-06-19T02:58:01;97898.06;;;16.93;72.77
75717;BME280;64333;50.138;14.332;2023-06-19T03:00:28;97901.50;;;17.04;71.66
75717;BME280;64333;50.138;14.332;2023-06-19T03:02:54;97897.34;;;17.02;70.96
75717;BME280;64333;50.138;14.332;2023-06-19T03:05:19;97901.50;;;17.04;72.67
75717;BME280;64333;50.138;14.332;2023-06-19T03:07:45;97899.00;;;17.03;73.40
75717;BME280;64333;50.138;14.332;2023-06-19T03:10:10;97898.25;;;16.90;73.96
75717;BME280;64333;50.138;14.332;2023-06-19T03:12:36;97896.13;;;16.84;75.24
75717;BME280;64333;50.138;14.332;2023-06-19T03:15:01;97898.63;;;16.86;76.12
75717;BME280;64333;50.138;14.332;2023-06-19T03:17:26;97895.53;;;16.92;76.43
75717;BME280;64333;50.138;14.332;2023-06-19T03:19:52;97888.91;;;16.88;76.19
75717;BME280;64333;50.138;14.332;2023-06-19T03:22:19;97888.91;;;16.88;76.59
75717;BME280;64333;50.138;14.332;2023-06-19T03:24:44;97885.22;;;16.90;76.20
75717;BME280;64333;50.138;14.332;2023-06-19T03:27:10;97891.19;;;16.92;76.42
75717;BME280;64333;50.138;14.332;2023-06-19T03:29:35;97896.41;;;16.92;77.04
75717;BME280;64333;50.138;14.332;2023-06-19T03:32:00;97889.03;;;16.97;77.93
75717;BME280;64333;50.138;14.332;2023-06-19T03:34:26;97893.44;;;16.97;76.98
75717;BME280;64333;50.138;14.332;2023-06-19T03:36:51;97902.44;;;16.92;77.02
75717;BME280;64333;50.138;14.332;2023-06-19T03:39:16;97898.25;;;16.90;78.41
75717;BME280;64333;50.138;14.332;2023-06-19T03:41:42;97909.44;;;16.92;78.09
75717;BME280;64333;50.138;14.332;2023-06-19T03:44:07;97915.25;;;16.96;77.15
75717;BME280;64333;50.138;14.332;2023-06-19T03:46:32;97908.25;;;16.96;77.23
75717;BME280;64333;50.138;14.332;2023-06-19T03:48:58;97909.53;;;16.91;77.22
75717;BME280;64333;50.138;14.332;2023-06-19T03:51:23;97910.16;;;16.94;77.40
75717;BME280;64333;50.138;14.332;2023-06-19T03:53:48;97920.34;;;16.97;78.26
75717;BME280;64333;50.138;14.332;2023-06-19T03:56:14;97911.66;;;16.86;77.52
75717;BME280;64333;50.138;14.332;2023-06-19T03:58:40;97915.06;;;16.75;76.95
75717;BME280;64333;50.138;14.332;2023-06-19T04:01:05;97917.22;;;16.81;77.13
75717;BME280;64333;50.138;14.332;2023-06-19T04:03:30;97914.13;;;16.76;78.29
75717;BME280;64333;50.138;14.332;2023-06-19T04:05:58;97912.97;;;16.80;78.07
75717;BME280;64333;50.138;14.332;2023-06-19T04:08:24;97914.97;;;16.77;78.01
75717;BME280;64333;50.138;14.332;2023-06-19T04:10:50;97916.28;;;16.82;78.92
75717;BME280;64333;50.138;14.332;2023-06-19T04:13:16;97913.53;;;16.49;81.29
75717;BME280;64333;50.138;14.332;2023-06-19T04:15:41;97908.38;;;16.37;83.18
75717;BME280;64333;50.138;14.332;2023-06-19T04:18:09;97910.06;;;16.38;83.06
75717;BME280;64333;50.138;14.332;2023-06-19T04:20:34;97921.81;;;16.43;83.23
75717;BME280;64333;50.138;14.332;2023-06-19T04:23:00;97918.75;;;16.49;82.77
75717;BME280;64333;50.138;14.332;2023-06-19T04:25:25;97915.59;;;16.57;82.36
75717;BME280;64333;50.138;14.332;2023-06-19T04:27:50;97918.72;;;16.73;82.21
75717;BME280;64333;50.138;14.332;2023-06-19T04:30:16;97921.28;;;16.85;82.18
75717;BME280;64333;50.138;14.332;2023-06-19T04:32:41;97921.28;;;16.96;81.53
75717;BME280;64333;50.138;14.332;2023-06-19T04:35:10;97925.38;;;17.22;79.45
75717;BME280;64333;50.138;14.332;2023-06-19T04:37:36;97923.28;;;17.49;79.87
75717;BME280;64333;50.138;14.332;2023-06-19T04:40:01;97930.41;;;17.69;78.38
75717;BME280;64333;50.138;14.332;2023-06-19T04:42:28;97931.59;;;17.98;76.65
75717;BME280;64333;50.138;14.332;2023-06-19T04:44:54;97932.88;;;18.14;76.16
75717;BME280;64333;50.138;14.332;2023-06-19T04:47:22;97934.19;;;18.62;73.81
75717;BME280;64333;50.138;14.332;2023-06-19T04:49:48;97940.22;;;18.63;72.89
75717;BME280;64333;50.138;14.332;2023-06-19T04:52:13;97944.13;;;19.00;74.41
75717;BME280;64333;50.138;14.332;2023-06-19T04:54:39;97947.25;;;19.35;73.78
75717;BME280;64333;50.138;14.332;2023-06-19T04:57:05;97954.16;;;19.56;73.21
75717;BME280;64333;50.138;14.332;2023-06-19T04:59:30;97943.63;;;19.47;73.13
75717;BME280;64333;50.138;14.332;2023-06-19T05:01:56;97957.56;;;19.27;72.94
75717;BME280;64333;50.138;14.332;2023-06-19T05:04:22;97950.91;;;19.23;73.57
75717;BME280;64333;50.138;14.332;2023-06-19T05:06:49;97964.22;;;19.31;72.92
75717;BME280;64333;50.138;14.332;2023-06-19T05:09:14;97956.16;;;19.43;70.82
75717;BME280;64333;50.138;14.332;2023-06-19T05:11:40;97949.81;;;19.46;70.86
75717;BME280;64333;50.138;14.332;2023-06-19T05:14:05;97950.25;;;19.51;71.15
75717;BME280;64333;50.138;14.332;2023-06-19T05:16:31;97944.47;;;19.47;71.93
75717;BME280;64333;50.138;14.332;2023-06-19T05:18:56;97947.13;;;19.57;72.40
75717;BME280;64333;50.138;14.332;2023-06-19T05:21:22;97951.88;;;19.42;71.60
75717;BME280;64333;50.138;14.332;2023-06-19T05:23:47;97948.84;;;19.47;71.10
75717;BME280;64333;50.138;14.332;2023-06-19T05:26:16;97961.00;;;19.48;70.66
75717;BME280;64333;50.138;14.332;2023-06-19T05:28:42;97969.22;;;19.64;71.07
75717;BME280;64333;50.138;14.332;2023-06-19T05:31:08;97964.41;;;19.69;69.35
75717;BME280;64333;50.138;14.332;2023-06-19T05:33:33;97967.22;;;19.77;69.53
75717;BME280;64333;50.138;14.332;2023-06-19T05:35:59;97964.34;;;20.10;67.81
75717;BME280;64333;50.138;14.332;2023-06-19T05:38:25;97974.41;;;19.84;68.19
75717;BME280;64333;50.138;14.332;2023-06-19T05:40:51;97981.34;;;19.95;68.40
75717;BME280;64333;50.138;14.332;2023-06-19T05:43:17;97985.38;;;19.99;66.94
75717;BME280;64333;50.138;14.332;2023-06-19T05:45:44;97983.44;;;20.01;65.15
75717;BME280;64333;50.138;14.332;2023-06-19T05:48:09;97992.72;;;20.05;65.44
75717;BME280;64333;50.138;14.332;2023-06-19T05:50:35;98000.22;;;20.09;64.54
75717;BME280;64333;50.138;14.332;2023-06-19T05:53:00;97995.81;;;20.19;65.17
75717;BME280;64333;50.138;14.332;2023-06-19T05:55:26;98000.69;;;20.24;64.17
75717;BME280;64333;50.138;14.332;2023-06-19T05:57:56;98003.72;;;20.29;66.86
75717;BME280;64333;50.138;14.332;2023-06-19T06:00:22;98003.00;;;20.17;66.70
75717;BME280;64333;50.138;14.332;2023-06-19T06:02:50;98006.88;;;20.13;63.25
75717;BME280;64333;50.138;14.332;2023-06-19T06:05:17;98010.59;;;20.11;63.05
75717;BME280;64333;50.138;14.332;2023-06-19T06:07:44;98016.44;;;20.03;62.86
75717;BME280;64333;50.138;14.332;2023-06-19T06:10:10;98017.03;;;20.07;63.56
75717;BME280;64333;50.138;14.332;2023-06-19T06:12:36;98017.03;;;20.07;63.75
75717;BME280;64333;50.138;14.332;2023-06-19T06:15:03;98027.28;;;20.10;63.85
75717;BME280;64333;50.138;14.332;2023-06-19T06:17:29;98033.09;;;20.23;63.97
75717;BME280;64333;50.138;14.332;2023-06-19T06:19:54;98029.09;;;20.68;61.74
75717;BME280;64333;50.138;14.332;2023-06-19T06:22:20;98027.81;;;20.53;61.92
75717;BME280;64333;50.138;14.332;2023-06-19T06:24:45;98024.69;;;20.78;61.44
75717;BME280;64333;50.138;14.332;2023-06-19T06:27:12;98021.97;;;20.89;59.98
75717;BME280;64333;50.138;14.332;2023-06-19T06:29:38;98033.69;;;20.85;60.84
75717;BME280;64333;50.138;14.332;2023-06-19T06:32:06;98022.19;;;20.67;61.85
75717;BME280;64333;50.138;14.332;2023-06-19T06:34:33;98032.91;;;20.45;62.83
75717;BME280;64333;50.138;14.332;2023-06-19T06:36:59;98016.13;;;20.66;62.51
75717;BME280;64333;50.138;14.332;2023-06-19T06:39:25;98031.59;;;20.69;62.74
75717;BME280;64333;50.138;14.332;2023-06-19T06:41:51;98031.28;;;20.63;63.64
75717;BME280;64333;50.138;14.332;2023-06-19T06:44:17;98035.97;;;20.59;63.52
75717;BME280;64333;50.138;14.332;2023-06-19T06:46:42;98030.06;;;20.67;63.02
75717;BME280;64333;50.138;14.332;2023-06-19T06:49:08;98036.28;;;20.66;64.46
75717;BME280;64333;50.138;14.332;2023-06-19T06:51:33;98064.09;;;20.78;63.00
75717;BME280;64333;50.138;14.332;2023-06-19T06:53:59;98064.22;;;20.86;62.67
75717;BME280;64333;50.138;14.332;2023-06-19T06:56:24;98049.22;;;21.07;63.00
75717;BME280;64333;50.138;14.332;2023-06-19T06:58:50;98073.81;;;21.06;62.50
75717;BME280;64333;50.138;14.332;2023-06-19T07:01:15;98064.56;;;21.02;63.68
75717;BME280;64333;50.138;14.332;2023-06-19T07:03:41;98067.31;;;21.19;63.61
75717;BME280;64333;50.138;14.332;2023-06-19T07:06:06;98051.00;;;21.44;61.45
75717;BME280;64333;50.138;14.332;2023-06-19T07:08:32;98058.34;;;21.41;62.25
75717;BME280;64333;50.138;14.332;2023-06-19T07:10:57;98057.91;;;21.55;61.19
75717;BME280;64333;50.138;14.332;2023-06-19T07:13:23;98063.44;;;21.61;62.42
75717;BME280;64333;50.138;14.332;2023-06-19T07:15:48;98052.63;;;21.83;63.27
75717;BME280;64333;50.138;14.332;2023-06-19T07:18:14;98052.03;;;21.99;62.65
75717;BME280;64333;50.138;14.332;2023-06-19T07:20:39;98056.66;;;22.24;62.02
75717;BME280;64333;50.138;14.332;2023-06-19T07:23:05;98055.78;;;22.33;62.56
75717;BME280;64333;50.138;14.332;2023-06-19T07:25:31;98059.09;;;22.35;62.51
75717;BME280;64333;50.138;14.332;2023-06-19T07:27:59;98065.53;;;22.86;60.36
75717;BME280;64333;50.138;14.332;2023-06-19T07:30:26;98059.53;;;22.67;60.85
75717;BME280;64333;50.138;14.332;2023-06-19T07:32:51;98062.56;;;22.72;60.04
75717;BME280;64333;50.138;14.332;2023-06-19T07:35:16;98061.13;;;22.50;59.77
75717;BME280;64333;50.138;14.332;2023-06-19T07:37:42;98059.31;;;22.60;60.05
75717;BME280;64333;50.138;14.332;2023-06-19T07:40:08;98061.19;;;22.68;60.54
75717;BME280;64333;50.138;14.332;2023-06-19T07:42:34;98055.03;;;22.77;59.25
75717;BME280;64333;50.138;14.332;2023-06-19T07:44:59;98053.00;;;22.71;59.51
75717;BME280;64333;50.138;14.332;2023-06-19T07:47:26;98055.69;;;22.61;60.96
75717;BME280;64333;50.138;14.332;2023-06-19T07:49:52;98056.91;;;22.67;61.66
75717;BME280;64333;50.138;14.332;2023-06-19T07:52:17;98062.78;;;22.78;59.07
75717;BME280;64333;50.138;14.332;2023-06-19T07:55:09;98045.06;;;22.98;60.51
75717;BME280;64333;50.138;14.332;2023-06-19T07:57:34;98053.84;;;22.89;57.74
75717;BME280;64333;50.138;14.332;2023-06-19T08:00:01;98057.38;;;22.97;58.44
75717;BME280;64333;50.138;14.332;2023-06-19T08:02:32;98062.25;;;22.75;59.69
75717;BME280;64333;50.138;14.332;2023-06-19T08:04:57;98046.44;;;22.75;59.98
75717;BME280;64333;50.138;14.332;2023-06-19T08:07:23;98042.91;;;22.66;60.13
75717;BME280;64333;50.138;14.332;2023-06-19T08:09:48;98048.75;;;22.60;60.03
75717;BME280;64333;50.138;14.332;2023-06-19T08:12:14;98046.47;;;22.48;58.67
75717;BME280;64333;50.138;14.332;2023-06-19T08:14:40;98049.41;;;22.45;59.61
75717;BME280;64333;50.138;14.332;2023-06-19T08:17:05;98042.72;;;22.41;58.86
75717;BME280;64333;50.138;14.332;2023-06-19T08:19:31;98043.03;;;22.38;60.61
75717;BME280;64333;50.138;14.332;2023-06-19T08:21:56;98038.72;;;22.10;62.97
75717;BME280;64333;50.138;14.332;2023-06-19T08:24:21;98031.78;;;22.09;64.12
75717;BME280;64333;50.138;14.332;2023-06-19T08:26:47;98031.84;;;21.99;64.66
75717;BME280;64333;50.138;14.332;2023-06-19T08:29:16;98029.91;;;21.92;65.07
75717;BME280;64333;50.138;14.332;2023-06-19T08:31:42;98019.41;;;21.92;65.78
75717;BME280;64333;50.138;14.332;2023-06-19T08:34:07;98023.59;;;21.75;64.04
75717;BME280;64333;50.138;14.332;2023-06-19T08:36:34;98035.09;;;21.74;63.59
75717;BME280;64333;50.138;14.332;2023-06-19T08:39:00;98031.34;;;21.77;64.21
75717;BME280;64333;50.138;14.332;2023-06-19T08:41:26;98034.09;;;21.85;64.82
75717;BME280;64333;50.138;14.332;2023-06-19T08:43:51;98035.19;;;21.92;64.25
75717;BME280;64333;50.138;14.332;2023-06-19T08:46:18;98036.13;;;22.00;63.69
75717;BME280;64333;50.138;14.332;2023-06-19T08:48:44;98035.47;;;22.16;62.86
75717;BME280;64333;50.138;14.332;2023-06-19T08:51:11;98037.53;;;22.22;63.44
75717;BME280;64333;50.138;14.332;2023-06-19T08:53:46;98039.16;;;22.32;62.58
75717;BME280;64333;50.138;14.332;2023-06-19T08:56:11;98035.28;;;22.63;60.86
75717;BME280;64333;50.138;14.332;2023-06-19T08:58:37;98036.53;;;22.86;59.39
75717;BME280;64333;50.138;14.332;2023-06-19T09:01:02;98038.13;;;23.14;59.56
75717;BME280;64333;50.138;14.332;2023-06-19T09:03:28;98044.34;;;23.23;59.01
75717;BME280;64333;50.138;14.332;2023-06-19T09:05:53;98043.34;;;23.41;58.55
75717;BME280;64333;50.138;14.332;2023-06-19T09:08:19;98048.41;;;23.77;57.91
75717;BME280;64333;50.138;14.332;2023-06-19T09:11:02;98047.94;;;23.82;58.60
75717;BME280;64333;50.138;14.332;2023-06-19T09:13:28;98051.41;;;24.33;56.56
75717;BME280;64333;50.138;14.332;2023-06-19T09:18:24;98049.28;;;24.70;55.53
75717;BME280;64333;50.138;14.332;2023-06-19T09:20:53;98052.31;;;24.99;55.71
75717;BME280;64333;50.138;14.332;2023-06-19T09:23:19;98058.84;;;25.37;53.56
75717;BME280;64333;50.138;14.332;2023-06-19T09:25:53;98053.72;;;25.91;51.69
75717;BME280;64333;50.138;14.332;2023-06-19T09:28:21;98051.44;;;27.42;48.61
75717;BME280;64333;50.138;14.332;2023-06-19T09:31:01;98057.84;;;28.94;45.12
75717;BME280;64333;50.138;14.332;2023-06-19T09:33:32;98056.56;;;29.68;43.19
75717;BME280;64333;50.138;14.332;2023-06-19T09:35:59;98046.38;;;30.60;41.10
75717;BME280;64333;50.138;14.332;2023-06-19T09:38:27;98050.34;;;31.24;39.26
75717;BME280;64333;50.138;14.332;2023-06-19T09:40:53;98042.97;;;32.43;36.64
75717;BME280;64333;50.138;14.332;2023-06-19T09:43:23;98045.63;;;33.06;35.99
75717;BME280;64333;50.138;14.332;2023-06-19T09:45:50;98040.09;;;33.94;33.79
75717;BME280;64333;50.138;14.332;2023-06-19T09:48:20;98051.63;;;34.80;32.01
75717;BME280;64333;50.138;14.332;2023-06-19T09:50:50;98040.28;;;34.78;31.21
75717;BME280;64333;50.138;14.332;2023-06-19T09:53:18;98035.81;;;35.49;30.48
75717;BME280;64333;50.138;14.332;2023-06-19T09:55:44;98043.28;;;35.88;30.38
75717;BME280;64333;50.138;14.332;2023-06-19T09:58:09;98045.66;;;36.65;30.29
75717;BME280;64333;50.138;14.332;2023-06-19T10:00:36;98032.81;;;37.84;28.09
75717;BME280;64333;50.138;14.332;2023-06-19T10:03:02;98037.63;;;38.48;26.80
75717;BME280;64333;50.138;14.332;2023-06-19T10:05:32;98035.00;;;38.53;25.84
75717;BME280;64333;50.138;14.332;2023-06-19T10:07:58;98038.41;;;38.10;27.69
75717;BME280;64333;50.138;14.332;2023-06-19T10:10:28;98041.31;;;37.59;27.12
75717;BME280;64333;50.138;14.332;2023-06-19T10:13:14;98057.50;;;37.31;26.51
75717;BME280;64333;50.138;14.332;2023-06-19T10:15:42;98049.06;;;37.56;26.54
75717;BME280;64333;50.138;14.332;2023-06-19T10:18:12;98047.78;;;37.91;26.86
75717;BME280;64333;50.138;14.332;2023-06-19T10:20:38;98047.22;;;37.56;27.41
75717;BME280;64333;50.138;14.332;2023-06-19T10:23:18;98046.25;;;37.95;27.25
75717;BME280;64333;50.138;14.332;2023-06-19T10:25:45;98038.50;;;38.75;25.04
75717;BME280;64333;50.138;14.332;2023-06-19T10:28:29;98037.16;;;39.20;23.88
75717;BME280;64333;50.138;14.332;2023-06-19T10:31:06;98036.69;;;39.02;24.80
75717;BME280;64333;50.138;14.332;2023-06-19T10:33:33;98037.75;;;39.49;24.16
75717;BME280;64333;50.138;14.332;2023-06-19T10:36:19;98028.81;;;39.22;24.82
75717;BME280;64333;50.138;14.332;2023-06-19T10:38:46;98034.72;;;38.76;24.37
75717;BME280;64333;50.138;14.332;2023-06-19T10:41:19;98034.38;;;39.95;22.96
75717;BME280;64333;50.138;14.332;2023-06-19T10:44:04;98035.31;;;40.47;22.16
75717;BME280;64333;50.138;14.332;2023-06-19T10:46:34;98033.47;;;41.28;21.44
75717;BME280;64333;50.138;14.332;2023-06-19T10:49:05;98027.53;;;41.16;21.14
75717;BME280;64333;50.138;14.332;2023-06-19T10:51:34;98019.34;;;41.06;21.77
75717;BME280;64333;50.138;14.332;2023-06-19T10:53:59;98021.94;;;40.81;21.40
75717;BME280;64333;50.138;14.332;2023-06-19T10:56:25;98018.00;;;41.19;20.80
75717;BME280;64333;50.138;14.332;2023-06-19T10:59:04;98022.97;;;41.37;20.38
75717;BME280;64333;50.138;14.332;2023-06-19T11:01:38;98020.53;;;41.65;19.89
75717;BME280;64333;50.138;14.332;2023-06-19T11:04:06;98016.31;;;40.42;21.62
75717;BME280;64333;50.138;14.332;2023-06-19T11:06:32;98016.19;;;40.22;21.42
75717;BME280;64333;50.138;14.332;2023-06-19T11:08:58;98012.34;;;40.13;21.04
75717;BME280;64333;50.138;14.332;2023-06-19T11:11:36;98014.94;;;40.03;22.69
75717;BME280;64333;50.138;14.332;2023-06-19T11:14:02;98012.84;;;41.12;20.39
75717;BME280;64333;50.138;14.332;2023-06-19T11:16:27;98006.69;;;41.52;19.73
75717;BME280;64333;50.138;14.332;2023-06-19T11:18:59;98003.66;;;42.38;17.96
75717;BME280;64333;50.138;14.332;2023-06-19T11:21:32;97997.38;;;43.55;17.40
75717;BME280;64333;50.138;14.332;2023-06-19T11:24:02;98010.56;;;42.84;18.31
75717;BME280;64333;50.138;14.332;2023-06-19T11:26:28;97999.88;;;43.08;17.39
75717;BME280;64333;50.138;14.332;2023-06-19T11:28:54;98005.91;;;41.91;18.15
75717;BME280;64333;50.138;14.332;2023-06-19T11:31:25;98004.53;;;41.49;18.80
75717;BME280;64333;50.138;14.332;2023-06-19T11:33:59;97998.72;;;40.03;19.96
75717;BME280;64333;50.138;14.332;2023-06-19T11:36:24;97996.25;;;39.65;20.49
75717;BME280;64333;50.138;14.332;2023-06-19T11:38:51;97997.88;;;38.86;21.16
75717;BME280;64333;50.138;14.332;2023-06-19T11:41:29;98003.44;;;40.59;19.29
75717;BME280;64333;50.138;14.332;2023-06-19T11:43:59;98000.47;;;41.71;19.02
75717;BME280;64333;50.138;14.332;2023-06-19T11:46:29;97993.94;;;42.17;17.55
75717;BME280;64333;50.138;14.332;2023-06-19T11:49:06;97996.56;;;40.46;19.30
75717;BME280;64333;50.138;14.332;2023-06-19T11:51:32;97982.84;;;38.74;20.63
75717;BME280;64333;50.138;14.332;2023-06-19T11:53:57;97973.88;;;37.76;23.12
75717;BME280;64333;50.138;14.332;2023-06-19T11:56:22;97975.25;;;38.71;21.79
75717;BME280;64333;50.138;14.332;2023-06-19T11:58:48;97977.28;;;40.33;19.45
75717;BME280;64333;50.138;14.332;2023-06-19T12:01:13;97979.84;;;41.80;18.09
75717;BME280;64333;50.138;14.332;2023-06-19T12:03:39;97968.03;;;40.90;18.57
75717;BME280;64333;50.138;14.332;2023-06-19T12:06:05;97961.53;;;39.57;20.58
75717;BME280;64333;50.138;14.332;2023-06-19T12:08:31;97964.56;;;38.81;21.15
75717;BME280;64333;50.138;14.332;2023-06-19T12:10:56;97967.03;;;38.23;22.39
75717;BME280;64333;50.138;14.332;2023-06-19T12:13:22;97957.56;;;37.99;22.82
75717;BME280;64333;50.138;14.332;2023-06-19T12:15:47;97955.31;;;37.30;22.93
75717;BME280;64333;50.138;14.332;2023-06-19T12:18:12;97961.13;;;38.85;21.76
75717;BME280;64333;50.138;14.332;2023-06-19T12:20:39;97963.34;;;38.93;21.57
75717;BME280;64333;50.138;14.332;2023-06-19T12:23:04;97965.78;;;40.16;19.91
75717;BME280;64333;50.138;14.332;2023-06-19T12:25:32;97970.84;;;40.44;20.11
75717;BME280;64333;50.138;14.332;2023-06-19T12:27:58;97973.78;;;40.42;19.39
75717;BME280;64333;50.138;14.332;2023-06-19T12:30:23;97971.81;;;40.28;19.04
75717;BME280;64333;50.138;14.332;2023-06-19T12:32:50;97963.66;;;39.50;20.42
75717;BME280;64333;50.138;14.332;2023-06-19T12:35:15;97965.47;;;38.65;21.16
75717;BME280;64333;50.138;14.332;2023-06-19T12:37:41;97960.31;;;37.38;23.19
75717;BME280;64333;50.138;14.332;2023-06-19T12:40:06;97963.56;;;36.56;23.23
75717;BME280;64333;50.138;14.332;2023-06-19T12:42:36;97955.78;;;35.62;24.64
75717;BME280;64333;50.138;14.332;2023-06-19T12:45:02;97960.69;;;35.54;24.88
75717;BME280;64333;50.138;14.332;2023-06-19T12:47:28;97955.50;;;34.70;27.00
75717;BME280;64333;50.138;14.332;2023-06-19T12:49:53;97954.53;;;33.93;27.26
75717;BME280;64333;50.138;14.332;2023-06-19T12:52:19;97959.88;;;33.44;27.33
75717;BME280;64333;50.138;14.332;2023-06-19T12:54:44;97960.53;;;32.71;29.28